createdAt,value
2022-11-29T00:01:04.879Z,100.00
2022-11-29T00:03:33.106Z,100.00
2022-11-29T00:06:06.419Z,100.00
2022-11-29T00:08:34.478Z,100.00
2022-11-29T00:11:08.276Z,100.00
2022-11-29T00:13:36.905Z,100.00
2022-11-29T00:16:05.879Z,100.00
2022-11-29T00:18:34.111Z,100.00
2022-11-29T00:21:06.265Z,100.00
2022-11-29T00:23:34.515Z,100.00
2022-11-29T00:26:05.483Z,100.00
2022-11-29T00:28:35.991Z,100.00
2022-11-29T00:31:15.167Z,100.00
2022-11-29T00:33:43.249Z,100.00
2022-11-29T00:36:11.476Z,100.00
2022-11-29T00:38:39.853Z,100.00
2022-11-29T00:41:08.526Z,100.00
2022-11-29T00:43:38.318Z,100.00
2022-11-29T00:46:07.392Z,100.00
2022-11-29T00:48:35.705Z,100.00
2022-11-29T00:51:04.400Z,100.00
2022-11-29T00:53:33.180Z,100.00
2022-11-29T00:56:01.259Z,100.00
2022-11-29T00:58:29.373Z,100.00
2022-11-29T01:00:58.809Z,100.00
2022-11-29T01:03:27.124Z,100.00
2022-11-29T01:06:01.966Z,100.00
2022-11-29T01:08:30.075Z,100.00
2022-11-29T01:11:07.789Z,100.00
2022-11-29T01:13:36.572Z,100.00
2022-11-29T01:16:07.233Z,100.00
2022-11-29T01:18:35.570Z,100.00
2022-11-29T01:21:06.120Z,100.00
2022-11-29T01:23:35.087Z,100.00
2022-11-29T01:26:05.175Z,100.00
2022-11-29T01:28:33.161Z,100.00
2022-11-29T01:31:01.174Z,100.00
2022-11-29T01:33:30.591Z,100.00
2022-11-29T01:35:58.596Z,100.00
2022-11-29T01:38:26.661Z,100.00
2022-11-29T01:40:59.652Z,100.00
2022-11-29T01:43:28.238Z,100.00
2022-11-29T01:45:56.704Z,100.00
2022-11-29T01:48:26.988Z,100.00
2022-11-29T01:51:01.249Z,100.00
2022-11-29T01:53:30.056Z,100.00
2022-11-29T01:56:05.641Z,100.00
2022-11-29T01:58:34.469Z,100.00
2022-11-29T02:01:03.119Z,100.00
2022-11-29T02:03:31.127Z,100.00
2022-11-29T02:06:02.115Z,100.00
2022-11-29T02:08:37.595Z,100.00
2022-11-29T02:11:28.903Z,100.00
2022-11-29T02:14:05.514Z,100.00
2022-11-29T02:16:44.071Z,100.00
2022-11-29T02:19:28.364Z,100.00
2022-11-29T02:22:03.048Z,100.00
2022-11-29T02:24:56.621Z,100.00
2022-11-29T02:28:05.755Z,100.00
2022-11-29T02:31:05.113Z,100.00
2022-11-29T02:33:58.010Z,100.00
2022-11-29T02:36:44.254Z,100.00
2022-11-29T02:39:52.419Z,100.00
2022-11-29T02:43:05.354Z,100.00
2022-11-29T02:45:57.309Z,100.00
2022-11-29T02:48:44.794Z,100.00
2022-11-29T02:51:20.036Z,100.00
2022-11-29T02:53:55.046Z,100.00
2022-11-29T02:56:31.101Z,100.00
2022-11-29T02:59:06.393Z,100.00
2022-11-29T03:01:41.602Z,100.00
2022-11-29T03:04:18.937Z,100.00
2022-11-29T03:06:56.716Z,100.00
2022-11-29T03:09:34.696Z,100.00
2022-11-29T03:12:12.080Z,100.00
2022-11-29T03:14:55.679Z,100.00
2022-11-29T03:17:33.206Z,100.00
2022-11-29T03:20:28.004Z,100.00
2022-11-29T03:23:20.543Z,100.00
2022-11-29T03:25:56.071Z,100.00
2022-11-29T03:28:29.562Z,100.00
2022-11-29T03:31:05.409Z,100.00
2022-11-29T03:33:46.536Z,100.00
2022-11-29T03:36:26.942Z,100.00
2022-11-29T03:38:59.575Z,100.00
2022-11-29T03:41:34.280Z,100.00
2022-11-29T03:44:08.548Z,100.00
2022-11-29T03:46:41.737Z,100.00
2022-11-29T03:49:17.401Z,100.00
2022-11-29T03:52:01.884Z,100.00
2022-11-29T03:54:38.213Z,100.00
2022-11-29T03:57:07.545Z,100.00
2022-11-29T03:59:55.936Z,100.00
2022-11-29T04:03:14.534Z,100.00
2022-11-29T04:06:09.988Z,100.00
2022-11-29T04:08:57.328Z,100.00
2022-11-29T04:11:55.934Z,100.00
2022-11-29T04:14:44.199Z,100.00
2022-11-29T04:17:42.689Z,100.00
2022-11-29T04:20:47.877Z,100.00
2022-11-29T04:23:44.865Z,100.00
2022-11-29T04:26:39.033Z,100.00
2022-11-29T04:29:21.708Z,100.00
2022-11-29T04:32:18.340Z,100.00
2022-11-29T04:35:19.051Z,100.00
2022-11-29T04:38:09.290Z,100.00
2022-11-29T04:40:55.962Z,100.00
2022-11-29T04:43:46.537Z,100.00
2022-11-29T04:46:37.381Z,100.00
2022-11-29T04:49:33.929Z,100.00
2022-11-29T04:52:24.421Z,100.00
2022-11-29T04:55:01.390Z,100.00
2022-11-29T04:57:36.396Z,100.00
2022-11-29T05:00:10.379Z,100.00
2022-11-29T05:02:49.734Z,100.00
2022-11-29T05:05:28.879Z,100.00
2022-11-29T05:08:23.038Z,100.00
2022-11-29T05:11:00.990Z,100.00
2022-11-29T05:13:40.229Z,100.00
2022-11-29T05:16:20.395Z,100.00
2022-11-29T05:19:21.801Z,100.00
2022-11-29T05:22:02.454Z,100.00
2022-11-29T05:24:47.157Z,100.00
2022-11-29T05:27:24.411Z,100.00
2022-11-29T05:29:59.633Z,100.00
2022-11-29T05:32:36.011Z,100.00
2022-11-29T05:35:33.642Z,100.00
2022-11-29T05:38:09.577Z,100.00
2022-11-29T05:40:47.195Z,100.00
2022-11-29T05:43:57.642Z,100.00
2022-11-29T05:46:32.237Z,100.00
2022-11-29T05:49:09.573Z,100.00
2022-11-29T05:51:45.949Z,100.00
2022-11-29T05:54:25.975Z,100.00
2022-11-29T05:57:04.632Z,100.00
2022-11-29T05:59:35.526Z,100.00
2022-11-29T06:02:13.551Z,100.00
2022-11-29T06:04:56.120Z,100.00
2022-11-29T06:07:30.084Z,100.00
2022-11-29T06:10:02.242Z,100.00
2022-11-29T06:12:35.042Z,100.00
2022-11-29T06:15:25.579Z,100.00
2022-11-29T06:18:11.177Z,100.00
2022-11-29T06:21:04.463Z,100.00
2022-11-29T06:24:05.982Z,100.00
2022-11-29T06:26:46.213Z,100.00
2022-11-29T06:29:37.954Z,100.00
2022-11-29T06:32:18.209Z,100.00
2022-11-29T06:34:55.570Z,100.00
2022-11-29T06:37:29.051Z,100.00
2022-11-29T06:39:57.538Z,100.00
2022-11-29T06:42:25.695Z,100.00
2022-11-29T06:44:54.168Z,100.00
2022-11-29T06:47:29.235Z,100.00
2022-11-29T06:50:03.819Z,100.00
2022-11-29T06:52:44.758Z,100.00
2022-11-29T06:55:20.874Z,100.00
2022-11-29T06:58:02.480Z,100.00
2022-11-29T07:00:41.714Z,100.00
2022-11-29T07:03:42.167Z,100.00
2022-11-29T07:06:22.176Z,100.00
2022-11-29T07:08:57.569Z,100.00
2022-11-29T07:11:25.997Z,100.00
2022-11-29T07:13:54.683Z,100.00
2022-11-29T07:16:29.033Z,100.00
2022-11-29T07:19:06.261Z,100.00
2022-11-29T07:21:47.194Z,100.00
2022-11-29T07:24:33.990Z,100.00
2022-11-29T07:27:10.015Z,100.00
2022-11-29T07:29:48.938Z,100.00
2022-11-29T07:32:26.600Z,100.00
2022-11-29T07:35:04.937Z,100.00
2022-11-29T07:37:39.558Z,100.00
2022-11-29T07:40:16.468Z,100.00
2022-11-29T07:42:58.046Z,100.00
2022-11-29T07:45:29.495Z,100.00
2022-11-29T07:47:57.522Z,100.00
2022-11-29T07:50:27.220Z,100.00
2022-11-29T07:52:56.551Z,100.00
2022-11-29T07:55:27.626Z,100.00
2022-11-29T07:57:55.795Z,100.00
2022-11-29T08:00:24.384Z,100.00
2022-11-29T08:02:52.718Z,100.00
2022-11-29T08:05:20.856Z,100.00
2022-11-29T08:07:49.426Z,100.00
2022-11-29T08:10:18.285Z,100.00
2022-11-29T08:12:50.877Z,100.00
2022-11-29T08:15:19.857Z,100.00
2022-11-29T08:17:48.307Z,100.00
2022-11-29T08:20:17.532Z,100.00
2022-11-29T08:22:45.518Z,100.00
2022-11-29T08:25:13.767Z,100.00
2022-11-29T08:27:41.756Z,100.00
2022-11-29T08:30:11.961Z,100.00
2022-11-29T08:32:39.970Z,100.00
2022-11-29T08:35:08.368Z,100.00
2022-11-29T08:37:37.012Z,100.00
2022-11-29T08:40:05.477Z,100.00
2022-11-29T08:42:33.730Z,100.00
2022-11-29T08:45:01.774Z,100.00
2022-11-29T08:47:36.983Z,100.00
2022-11-29T08:50:10.175Z,100.00
2022-11-29T08:52:59.054Z,100.00
2022-11-29T08:55:29.327Z,100.00
2022-11-29T08:58:03.024Z,100.00
2022-11-29T09:00:31.135Z,100.00
2022-11-29T09:03:20.607Z,100.00
2022-11-29T09:05:48.992Z,100.00
2022-11-29T09:08:17.372Z,100.00
2022-11-29T09:10:45.686Z,100.00
2022-11-29T09:13:13.776Z,100.00
2022-11-29T09:15:43.639Z,100.00
2022-11-29T09:18:13.159Z,100.00
2022-11-29T09:20:43.930Z,100.00
2022-11-29T09:23:12.787Z,100.00
2022-11-29T09:25:40.847Z,100.00
2022-11-29T09:28:08.819Z,100.00
2022-11-29T09:30:38.157Z,100.00
2022-11-29T09:33:06.275Z,100.00
2022-11-29T09:35:36.049Z,100.00
2022-11-29T09:38:04.259Z,100.00
2022-11-29T09:40:38.673Z,100.00
2022-11-29T09:43:23.034Z,100.00
2022-11-29T09:45:57.296Z,100.00
2022-11-29T09:48:53.471Z,100.00
2022-11-29T09:51:29.445Z,100.00
2022-11-29T09:54:14.474Z,99.59
2022-11-29T09:56:45.454Z,99.76
2022-11-29T09:59:18.541Z,100.00
2022-11-29T10:01:53.183Z,98.70
2022-11-29T10:04:26.848Z,96.46
2022-11-29T10:07:03.013Z,94.43
2022-11-29T10:09:34.984Z,95.52
2022-11-29T10:12:12.904Z,93.01
2022-11-29T10:14:47.392Z,92.88
2022-11-29T10:17:27.458Z,94.68
2022-11-29T10:20:00.742Z,93.96
2022-11-29T10:22:39.557Z,93.38
2022-11-29T10:25:10.455Z,92.84
2022-11-29T10:27:41.663Z,91.53
2022-11-29T10:30:16.173Z,91.09
2022-11-29T10:32:46.627Z,89.09
2022-11-29T10:35:16.734Z,87.75
2022-11-29T10:38:07.628Z,87.16
2022-11-29T10:40:38.852Z,86.27
2022-11-29T10:43:06.987Z,86.41
2022-11-29T10:45:39.075Z,83.05
2022-11-29T10:48:11.816Z,84.04
2022-11-29T10:50:42.815Z,85.11
2022-11-29T10:53:14.893Z,83.75
2022-11-29T10:55:46.883Z,82.79
2022-11-29T10:58:22.074Z,82.65
2022-11-29T11:00:56.431Z,80.60
2022-11-29T11:03:32.302Z,82.57
2022-11-29T11:06:03.717Z,83.45
2022-11-29T11:08:35.008Z,82.08
2022-11-29T11:11:05.067Z,83.34
2022-11-29T11:13:34.095Z,82.54
2022-11-29T11:16:12.147Z,82.85
2022-11-29T11:18:40.285Z,82.05
2022-11-29T11:21:11.935Z,80.56
2022-11-29T11:23:47.945Z,79.70
2022-11-29T11:26:16.373Z,79.79
2022-11-29T11:28:50.829Z,80.69
2022-11-29T11:31:28.368Z,79.87
2022-11-29T11:33:57.184Z,80.69
2022-11-29T11:36:27.430Z,77.89
2022-11-29T11:38:59.595Z,78.86
2022-11-29T11:41:44.622Z,78.13
2022-11-29T11:44:46.739Z,76.68
2022-11-29T11:47:19.359Z,75.58
2022-11-29T11:49:50.185Z,75.35
2022-11-29T11:52:22.940Z,73.84
2022-11-29T11:54:57.174Z,73.28
2022-11-29T11:57:27.466Z,72.68
2022-11-29T12:00:00.716Z,72.79
2022-11-29T12:02:38.838Z,71.95
2022-11-29T12:05:14.449Z,70.79
2022-11-29T12:10:40.973Z,70.57
2022-11-29T12:13:19.406Z,69.52
2022-11-29T12:15:50.858Z,70.58
2022-11-29T12:18:25.937Z,70.35
2022-11-29T12:20:57.219Z,68.53
2022-11-29T12:23:32.310Z,68.46
2022-11-29T12:26:05.763Z,68.30
2022-11-29T12:28:36.716Z,68.44
2022-11-29T12:31:17.544Z,68.26
2022-11-29T12:33:51.460Z,65.71
2022-11-29T12:36:30.177Z,62.53
2022-11-29T12:39:19.447Z,59.62
2022-11-29T12:41:54.474Z,57.26
2022-11-29T12:44:33.580Z,50.26
2022-11-29T12:50:08.573Z,41.94
2022-11-29T12:52:47.283Z,39.59
2022-11-29T12:55:24.288Z,37.14
2022-11-29T12:58:03.222Z,35.14
2022-11-29T13:00:44.283Z,33.93
2022-11-29T13:03:22.436Z,32.41
2022-11-29T13:05:58.809Z,32.34
2022-11-29T13:08:48.006Z,30.90
2022-11-29T13:11:23.091Z,30.97
2022-11-29T13:14:13.782Z,30.65
2022-11-29T13:16:53.695Z,31.71
2022-11-29T13:19:30.834Z,31.56
2022-11-29T13:22:07.532Z,31.07
2022-11-29T13:24:43.089Z,31.31
2022-11-29T13:27:17.114Z,30.39
2022-11-29T13:29:47.383Z,30.91
2022-11-29T13:32:30.906Z,32.30
2022-11-29T13:35:04.257Z,31.82
2022-11-29T13:37:36.973Z,32.42
2022-11-29T13:40:18.863Z,32.44
2022-11-29T13:42:53.468Z,32.45
2022-11-29T13:45:29.665Z,32.09
2022-11-29T13:48:00.415Z,33.30
2022-11-29T13:50:43.679Z,32.94
2022-11-29T13:53:17.714Z,33.57
2022-11-29T13:55:48.798Z,34.65
2022-11-29T13:58:38.231Z,34.55
2022-11-29T14:01:12.776Z,35.26
2022-11-29T14:03:42.412Z,36.22
2022-11-29T14:06:14.137Z,37.06
2022-11-29T14:09:22.439Z,38.33
2022-11-29T14:11:58.986Z,40.06
2022-11-29T14:14:31.470Z,41.35
2022-11-29T14:17:03.133Z,43.30
2022-11-29T14:19:34.170Z,45.11
2022-11-29T14:22:23.396Z,47.55
2022-11-29T14:25:50.476Z,49.70
2022-11-29T14:28:32.534Z,51.65
2022-11-29T14:31:02.554Z,52.91
2022-11-29T14:33:58.019Z,55.18
2022-11-29T14:36:39.568Z,57.26
2022-11-29T14:39:36.480Z,59.95
2022-11-29T14:42:14.797Z,62.15
2022-11-29T14:44:51.119Z,65.56
2022-11-29T14:47:29.787Z,67.98
2022-11-29T14:50:01.153Z,69.64
2022-11-29T14:52:34.760Z,72.20
2022-11-29T14:55:06.676Z,73.52
2022-11-29T14:57:53.833Z,76.67
2022-11-29T15:00:23.531Z,76.60
2022-11-29T15:02:54.540Z,77.08
2022-11-29T15:05:30.600Z,77.50
2022-11-29T15:08:09.468Z,77.44
2022-11-29T15:10:41.477Z,77.17
2022-11-29T15:13:13.264Z,78.05
2022-11-29T15:16:05.748Z,78.37
2022-11-29T15:19:07.138Z,77.75
2022-11-29T15:21:45.650Z,77.42
2022-11-29T15:24:15.273Z,77.29
2022-11-29T15:26:56.655Z,77.38
2022-11-29T15:29:25.387Z,76.82
2022-11-29T15:31:55.846Z,76.77
2022-11-29T15:34:31.618Z,77.68
2022-11-29T15:37:01.913Z,77.40
2022-11-29T15:39:33.979Z,78.56
2022-11-29T15:42:03.857Z,78.48
2022-11-29T15:44:33.837Z,79.49
2022-11-29T15:47:21.810Z,80.60
2022-11-29T15:49:49.973Z,80.48
2022-11-29T15:52:25.882Z,80.88
2022-11-29T15:54:58.191Z,82.10
2022-11-29T15:57:30.146Z,81.25
2022-11-29T16:00:02.279Z,80.68
2022-11-29T16:02:33.769Z,81.60
2022-11-29T16:05:09.703Z,81.32
2022-11-29T16:07:40.822Z,81.51
2022-11-29T16:10:15.832Z,81.77
2022-11-29T16:12:51.908Z,82.68
2022-11-29T16:15:28.349Z,81.85
2022-11-29T16:17:56.517Z,81.89
2022-11-29T16:20:27.033Z,82.81
2022-11-29T16:23:20.065Z,83.52
2022-11-29T16:26:00.854Z,84.10
2022-11-29T16:28:32.860Z,84.39
2022-11-29T16:31:01.098Z,84.75
2022-11-29T16:33:29.419Z,84.64
2022-11-29T16:36:12.555Z,84.63
2022-11-29T16:38:47.782Z,85.11
2022-11-29T16:41:25.128Z,85.70
2022-11-29T16:43:56.211Z,85.75
2022-11-29T16:46:30.536Z,86.36
2022-11-29T16:49:00.842Z,86.72
2022-11-29T16:51:37.720Z,86.99
2022-11-29T16:54:24.743Z,86.61
2022-11-29T16:56:54.347Z,86.46
2022-11-29T16:59:27.200Z,86.76
2022-11-29T17:01:56.341Z,87.10
2022-11-29T17:04:25.319Z,87.17
2022-11-29T17:06:54.342Z,87.40
2022-11-29T17:09:26.818Z,86.76
2022-11-29T17:11:55.447Z,86.08
2022-11-29T17:14:23.596Z,86.25
2022-11-29T17:16:52.176Z,85.97
2022-11-29T17:19:23.851Z,86.07
2022-11-29T17:21:52.841Z,86.53
2022-11-29T17:24:22.826Z,87.29
2022-11-29T17:26:52.802Z,87.91
2022-11-29T17:29:20.904Z,88.27
2022-11-29T17:31:50.464Z,88.61
2022-11-29T17:34:18.923Z,88.42
2022-11-29T17:36:47.004Z,87.82
2022-11-29T17:39:15.845Z,88.42
2022-11-29T17:41:43.884Z,88.24
2022-11-29T17:44:13.900Z,88.43
2022-11-29T17:46:41.906Z,87.92
2022-11-29T17:49:11.315Z,88.39
2022-11-29T17:51:51.701Z,88.37
2022-11-29T17:54:20.974Z,88.39
2022-11-29T17:56:49.293Z,88.20
2022-11-29T17:59:18.767Z,88.89
2022-11-29T18:01:48.146Z,89.53
2022-11-29T18:04:16.693Z,90.00
2022-11-29T18:06:49.697Z,90.95
2022-11-29T18:09:19.455Z,91.69
2022-11-29T18:11:49.697Z,91.81
2022-11-29T18:14:22.770Z,92.38
2022-11-29T18:16:51.206Z,92.43
2022-11-29T18:19:23.040Z,92.27
2022-11-29T18:21:51.973Z,92.33
2022-11-29T18:24:20.239Z,92.33
2022-11-29T18:26:48.478Z,92.45
2022-11-29T18:29:16.619Z,92.93
2022-11-29T18:31:47.169Z,93.13
2022-11-29T18:34:15.823Z,93.61
2022-11-29T18:36:45.412Z,93.10
2022-11-29T18:39:15.836Z,92.68
2022-11-29T18:41:46.138Z,93.18
2022-11-29T18:44:15.863Z,92.54
2022-11-29T18:46:46.451Z,93.16
2022-11-29T18:49:15.875Z,92.71
2022-11-29T18:51:45.767Z,93.02
2022-11-29T18:54:14.899Z,92.50
2022-11-29T18:56:43.951Z,92.35
2022-11-29T18:59:14.353Z,92.38
2022-11-29T19:01:43.120Z,92.25
2022-11-29T19:04:14.834Z,92.14
2022-11-29T19:06:43.210Z,91.78
2022-11-29T19:09:14.496Z,91.83
2022-11-29T19:11:42.592Z,91.64
2022-11-29T19:14:13.106Z,92.34
2022-11-29T19:16:43.282Z,92.23
2022-11-29T19:19:13.169Z,91.97
2022-11-29T19:21:41.873Z,91.52
2022-11-29T19:24:15.123Z,91.79
2022-11-29T19:26:45.547Z,92.16
2022-11-29T19:29:14.361Z,92.79
2022-11-29T19:31:44.072Z,92.43
2022-11-29T19:34:13.560Z,92.92
2022-11-29T19:36:44.505Z,93.03
2022-11-29T19:39:14.059Z,93.50
2022-11-29T19:41:44.016Z,94.17
2022-11-29T19:44:12.618Z,94.26
2022-11-29T19:46:42.634Z,94.18
2022-11-29T19:49:11.215Z,94.55
2022-11-29T19:51:40.635Z,94.74
2022-11-29T19:54:10.255Z,95.19
2022-11-29T19:56:39.393Z,95.89
2022-11-29T19:59:08.772Z,96.15
2022-11-29T20:01:41.439Z,96.65
2022-11-29T20:04:12.288Z,97.84
2022-11-29T20:06:42.336Z,97.69
2022-11-29T20:09:10.800Z,98.50
2022-11-29T20:11:38.993Z,98.51
2022-11-29T20:14:08.886Z,98.49
2022-11-29T20:16:39.187Z,98.17
2022-11-29T20:19:11.020Z,98.48
2022-11-29T20:21:44.080Z,98.53
2022-11-29T20:24:14.476Z,98.45
2022-11-29T20:26:45.432Z,98.54
2022-11-29T20:29:14.830Z,99.26
2022-11-29T20:31:49.560Z,99.87
2022-11-29T20:34:19.060Z,100.00
2022-11-29T20:37:16.015Z,100.00
2022-11-29T20:39:51.120Z,100.00
2022-11-29T20:42:43.994Z,100.00
2022-11-29T20:45:14.004Z,100.00
2022-11-29T20:47:50.321Z,100.00
2022-11-29T20:50:23.232Z,100.00
2022-11-29T20:53:03.802Z,100.00
2022-11-29T20:55:31.891Z,100.00
2022-11-29T20:57:59.965Z,100.00
2022-11-29T21:00:28.025Z,100.00
2022-11-29T21:02:56.052Z,100.00
2022-11-29T21:05:24.077Z,100.00
2022-11-29T21:07:53.551Z,100.00
2022-11-29T21:10:22.042Z,100.00
2022-11-29T21:12:50.767Z,100.00
2022-11-29T21:15:19.851Z,100.00
2022-11-29T21:17:48.312Z,100.00
2022-11-29T21:20:19.670Z,100.00
2022-11-29T21:22:55.254Z,100.00
2022-11-29T21:25:32.594Z,100.00
2022-11-29T21:28:02.208Z,100.00
2022-11-29T21:30:30.547Z,100.00
2022-11-29T21:32:59.136Z,100.00
2022-11-29T21:35:27.356Z,100.00
2022-11-29T21:38:00.985Z,100.00
2022-11-29T21:40:29.537Z,100.00
2022-11-29T21:42:57.624Z,100.00
2022-11-29T21:45:25.750Z,100.00
2022-11-29T21:47:53.741Z,100.00
2022-11-29T21:50:21.775Z,100.00
2022-11-29T21:52:52.465Z,100.00
2022-11-29T21:55:21.920Z,100.00
2022-11-29T21:57:49.901Z,100.00
2022-11-29T22:00:18.878Z,100.00
2022-11-29T22:02:46.920Z,100.00
2022-11-29T22:05:15.094Z,100.00
2022-11-29T22:07:44.346Z,100.00
2022-11-29T22:10:13.600Z,100.00
2022-11-29T22:12:51.843Z,100.00
2022-11-29T22:15:24.767Z,100.00
2022-11-29T22:17:53.467Z,100.00
2022-11-29T22:20:21.657Z,100.00
2022-11-29T22:22:50.070Z,100.00
2022-11-29T22:25:18.186Z,100.00
2022-11-29T22:27:50.508Z,100.00
2022-11-29T22:30:19.070Z,100.00
2022-11-29T22:32:47.094Z,100.00
2022-11-29T22:35:15.276Z,100.00
2022-11-29T22:37:43.297Z,100.00
2022-11-29T22:40:11.979Z,100.00
2022-11-29T22:42:41.425Z,100.00
2022-11-29T22:45:11.950Z,100.00
2022-11-29T22:47:39.966Z,100.00
2022-11-29T22:50:08.727Z,100.00
2022-11-29T22:52:36.785Z,100.00
2022-11-29T22:55:05.461Z,100.00
2022-11-29T22:57:33.690Z,100.00
2022-11-29T23:00:01.725Z,100.00
2022-11-29T23:02:31.156Z,100.00
2022-11-29T23:04:59.277Z,100.00
2022-11-29T23:07:27.358Z,100.00
2022-11-29T23:09:56.262Z,100.00
2022-11-29T23:12:24.291Z,100.00
2022-11-29T23:14:56.387Z,100.00
2022-11-29T23:17:24.698Z,100.00
2022-11-29T23:19:54.212Z,100.00
2022-11-29T23:22:22.332Z,100.00
2022-11-29T23:24:50.389Z,100.00
2022-11-29T23:27:18.508Z,100.00
2022-11-29T23:29:46.601Z,100.00
2022-11-29T23:32:14.557Z,100.00
2022-11-29T23:34:42.544Z,100.00
2022-11-29T23:37:11.976Z,100.00
2022-11-29T23:39:40.039Z,100.00
2022-11-29T23:42:08.095Z,100.00
2022-11-29T23:44:36.177Z,100.00
2022-11-29T23:47:04.172Z,100.00
2022-11-29T23:49:35.344Z,100.00
2022-11-29T23:52:03.401Z,100.00
2022-11-29T23:54:32.838Z,100.00
2022-11-29T23:57:00.919Z,100.00
2022-11-29T23:59:29.019Z,100.00
